Аэропорт
Худжанд (UTDL)

 UTDL / LBD
ЗЦ Центральная Азия
Душанбе (UTDD)
Душанбе (UTDD)
 40.21540, 69.69470  / 1450 ft

 UTDL 201230Z 08008MPS 6000 NSC 09/03 Q1019 R08/29//50 NOSIG RMK QFE725/0967
 TAF UTDL 200600Z 2007/2019 08009MPS 3100 BR SCT080 TEMPO 2007/2016 07013MPS
UTDL_aip_1705
показать схемы

2020 © VATRUS division (Privacy Policy)